createdAt,value
2018-09-19T00:02:04.323Z,83.70
2018-09-19T00:04:32.739Z,83.78
2018-09-19T00:07:01.217Z,84.40
2018-09-19T00:09:29.778Z,83.93
2018-09-19T00:11:58.332Z,83.77
2018-09-19T00:14:27.055Z,82.57
2018-09-19T00:16:55.769Z,84.21
2018-09-19T00:19:24.324Z,83.22
2018-09-19T00:21:52.790Z,84.42
2018-09-19T00:24:21.462Z,84.52
2018-09-19T00:26:49.970Z,84.45
2018-09-19T00:29:18.397Z,84.55
2018-09-19T00:31:46.943Z,84.02
2018-09-19T00:34:15.378Z,84.93
2018-09-19T00:36:43.838Z,86.55
2018-09-19T00:39:12.419Z,85.49
2018-09-19T00:41:40.831Z,85.13
2018-09-19T00:44:09.448Z,84.95
2018-09-19T00:46:38.059Z,85.24
2018-09-19T00:49:06.698Z,83.88
2018-09-19T00:51:35.186Z,84.18
2018-09-19T00:54:03.809Z,84.44
2018-09-19T00:56:32.318Z,84.03
2018-09-19T00:59:00.931Z,84.40
2018-09-19T01:01:29.536Z,83.84
2018-09-19T01:03:58.052Z,85.00
2018-09-19T01:06:26.542Z,84.96
2018-09-19T01:08:55.030Z,85.54
2018-09-19T01:11:23.450Z,85.50
2018-09-19T01:13:51.987Z,85.65
2018-09-19T01:16:20.519Z,85.80
2018-09-19T01:18:48.967Z,86.65
2018-09-19T01:21:17.560Z,86.07
2018-09-19T01:23:46.194Z,87.09
2018-09-19T01:26:14.576Z,87.63
2018-09-19T01:28:43.138Z,87.63
2018-09-19T01:31:11.726Z,88.16
2018-09-19T01:33:40.304Z,88.45
2018-09-19T01:36:08.679Z,87.97
2018-09-19T01:38:37.191Z,88.31
2018-09-19T01:41:05.640Z,88.30
2018-09-19T01:43:34.070Z,87.45
2018-09-19T01:46:02.526Z,87.09
2018-09-19T01:48:31.225Z,87.47
2018-09-19T01:50:59.678Z,87.31
2018-09-19T01:53:28.230Z,87.20
2018-09-19T01:55:56.819Z,87.48
2018-09-19T01:58:25.247Z,88.52
2018-09-19T02:00:53.791Z,88.00
2018-09-19T02:03:22.264Z,87.99
2018-09-19T02:05:50.791Z,86.96
2018-09-19T02:08:19.331Z,89.23
2018-09-19T02:10:47.722Z,88.98
2018-09-19T02:13:16.280Z,89.13
2018-09-19T02:15:44.927Z,89.09
2018-09-19T02:18:13.343Z,88.94
2018-09-19T02:20:41.786Z,88.68
2018-09-19T02:23:10.242Z,88.12
2018-09-19T02:25:38.708Z,88.27
2018-09-19T02:28:07.616Z,88.34
2018-09-19T02:30:36.389Z,88.07
2018-09-19T02:33:04.932Z,87.67
2018-09-19T02:35:33.415Z,87.63
2018-09-19T02:38:02.035Z,88.37
2018-09-19T02:40:30.383Z,89.08
2018-09-19T02:42:58.907Z,88.51
2018-09-19T02:45:27.554Z,89.34
2018-09-19T02:47:55.994Z,88.59
2018-09-19T02:50:24.458Z,89.25
2018-09-19T02:52:55.506Z,88.90
2018-09-19T02:55:25.217Z,87.72
2018-09-19T02:57:54.022Z,88.82
2018-09-19T03:00:22.548Z,89.12
2018-09-19T03:02:51.702Z,90.28
2018-09-19T03:05:20.168Z,89.72
2018-09-19T03:07:48.723Z,89.24
2018-09-19T03:10:17.256Z,90.16
2018-09-19T03:12:45.729Z,89.06
2018-09-19T03:15:14.178Z,89.41
2018-09-19T03:17:42.887Z,87.64
2018-09-19T03:20:11.210Z,88.19
2018-09-19T03:22:40.028Z,89.23
2018-09-19T03:25:08.607Z,89.47
2018-09-19T03:27:37.266Z,89.93
2018-09-19T03:30:06.484Z,89.41
2018-09-19T03:32:35.066Z,90.10
2018-09-19T03:35:03.522Z,90.24
2018-09-19T03:37:32.284Z,90.42
2018-09-19T03:40:00.808Z,89.50
2018-09-19T03:42:29.302Z,90.37
2018-09-19T03:44:57.771Z,89.88
2018-09-19T03:47:26.223Z,88.68
2018-09-19T03:49:54.888Z,89.84
2018-09-19T03:52:23.498Z,88.79
2018-09-19T03:54:51.954Z,90.19
2018-09-19T03:57:20.358Z,89.28
2018-09-19T03:59:48.783Z,89.80
2018-09-19T04:02:17.372Z,89.67
2018-09-19T04:04:45.854Z,89.91
2018-09-19T04:07:14.379Z,90.85
2018-09-19T04:09:42.815Z,89.94
2018-09-19T04:12:11.315Z,90.13
2018-09-19T04:14:39.919Z,90.20
2018-09-19T04:17:08.359Z,91.19
2018-09-19T04:19:36.890Z,91.40
2018-09-19T04:22:05.492Z,90.21
2018-09-19T04:24:33.916Z,90.55
2018-09-19T04:27:02.352Z,89.59
2018-09-19T04:29:30.986Z,89.47
2018-09-19T04:31:59.442Z,89.90
2018-09-19T04:34:27.982Z,88.98
2018-09-19T04:36:56.503Z,90.50
2018-09-19T04:39:24.927Z,90.97
2018-09-19T04:41:53.374Z,90.95
2018-09-19T04:44:21.890Z,92.20
2018-09-19T04:46:50.303Z,91.97
2018-09-19T04:49:18.811Z,91.79
2018-09-19T04:51:47.588Z,92.42
2018-09-19T04:54:16.056Z,92.63
2018-09-19T04:56:44.535Z,93.03
2018-09-19T04:59:13.126Z,93.25
2018-09-19T05:01:41.604Z,91.40
2018-09-19T05:04:10.111Z,91.44
2018-09-19T05:06:38.667Z,90.80
2018-09-19T05:09:09.367Z,90.33
2018-09-19T05:11:37.854Z,91.00
2018-09-19T05:14:06.649Z,91.56
2018-09-19T05:16:35.163Z,91.47
2018-09-19T05:19:03.666Z,91.05
2018-09-19T05:21:32.330Z,92.12
2018-09-19T05:24:00.795Z,92.27
2018-09-19T05:26:29.394Z,91.78
2018-09-19T05:28:57.870Z,90.58
2018-09-19T05:31:26.391Z,90.29
2018-09-19T05:33:54.868Z,90.87
2018-09-19T05:36:23.350Z,91.06
2018-09-19T05:38:51.838Z,90.83
2018-09-19T05:41:20.553Z,90.56
2018-09-19T05:43:48.971Z,91.24
2018-09-19T05:46:17.485Z,91.12
2018-09-19T05:48:46.125Z,90.73
2018-09-19T05:51:14.540Z,89.92
2018-09-19T05:53:43.000Z,90.51
2018-09-19T05:56:11.714Z,89.86
2018-09-19T05:58:40.131Z,90.75
2018-09-19T06:01:08.604Z,89.37
2018-09-19T06:03:37.103Z,88.51
2018-09-19T06:06:05.873Z,89.48
2018-09-19T06:08:34.576Z,88.95
2018-09-19T06:11:03.041Z,87.90
2018-09-19T06:13:31.565Z,87.28
2018-09-19T06:16:00.122Z,87.43
2018-09-19T06:18:28.653Z,86.78
2018-09-19T06:20:57.080Z,86.83
2018-09-19T06:23:25.503Z,86.87
2018-09-19T06:25:54.007Z,87.04
2018-09-19T06:28:22.438Z,88.07
2018-09-19T06:30:50.956Z,88.21
2018-09-19T06:33:19.685Z,87.04
2018-09-19T06:35:48.195Z,87.10
2018-09-19T06:38:16.666Z,86.12
2018-09-19T06:40:45.188Z,86.01
2018-09-19T06:43:13.565Z,85.06
2018-09-19T06:45:42.068Z,85.68
2018-09-19T06:48:10.600Z,85.61
2018-09-19T06:50:39.059Z,85.05
2018-09-19T06:53:07.522Z,85.62
2018-09-19T06:55:36.198Z,84.34
2018-09-19T06:58:04.692Z,83.74
2018-09-19T07:00:33.235Z,84.53
2018-09-19T07:03:01.868Z,83.96
2018-09-19T07:05:30.436Z,83.70
2018-09-19T07:07:58.842Z,82.85
2018-09-19T07:10:27.639Z,80.91
2018-09-19T07:12:56.159Z,83.28
2018-09-19T07:15:24.690Z,82.64
2018-09-19T07:17:53.194Z,79.45
2018-09-19T07:20:21.675Z,80.10
2018-09-19T07:22:50.141Z,78.36
2018-09-19T07:25:18.673Z,80.44
2018-09-19T07:27:47.149Z,79.24
2018-09-19T07:30:15.563Z,77.64
2018-09-19T07:32:44.218Z,76.98
2018-09-19T07:35:12.732Z,76.79
2018-09-19T07:37:41.238Z,77.39
2018-09-19T07:40:09.727Z,76.79
2018-09-19T07:42:38.232Z,76.24
2018-09-19T07:45:06.919Z,76.12
2018-09-19T07:47:35.678Z,76.70
2018-09-19T07:50:04.621Z,76.22
2018-09-19T07:52:33.244Z,76.07
2018-09-19T07:55:01.793Z,75.72
2018-09-19T07:57:30.266Z,73.73
2018-09-19T07:59:58.875Z,73.40
2018-09-19T08:02:27.766Z,73.81
2018-09-19T08:04:56.558Z,73.68
2018-09-19T08:07:24.975Z,71.19
2018-09-19T08:09:53.833Z,71.10
2018-09-19T08:12:22.283Z,71.24
2018-09-19T08:14:50.834Z,71.14
2018-09-19T08:17:19.759Z,69.61
2018-09-19T08:19:48.235Z,69.24
2018-09-19T08:22:16.690Z,69.40
2018-09-19T08:24:45.342Z,68.33
2018-09-19T08:27:13.874Z,68.32
2018-09-19T08:29:42.358Z,68.20
2018-09-19T08:32:10.890Z,68.06
2018-09-19T08:34:39.304Z,67.42
2018-09-19T08:37:07.730Z,66.82
2018-09-19T08:39:36.262Z,66.72
2018-09-19T08:42:04.850Z,65.48
2018-09-19T08:44:33.295Z,66.75
2018-09-19T08:47:01.899Z,66.02
2018-09-19T08:49:30.406Z,65.65
2018-09-19T08:51:58.963Z,65.08
2018-09-19T08:54:27.523Z,64.62
2018-09-19T08:56:56.086Z,64.03
2018-09-19T08:59:24.507Z,64.65
2018-09-19T09:01:53.265Z,62.71
2018-09-19T09:04:21.662Z,62.84
2018-09-19T09:06:50.277Z,63.62
2018-09-19T09:09:18.946Z,62.96
2018-09-19T09:11:47.402Z,62.60
2018-09-19T09:14:15.918Z,62.93
2018-09-19T09:16:44.389Z,62.33
2018-09-19T09:19:12.859Z,62.29
2018-09-19T09:21:41.302Z,61.60
2018-09-19T09:24:09.860Z,61.17
2018-09-19T09:26:38.327Z,60.90
2018-09-19T09:29:06.842Z,61.16
2018-09-19T09:31:35.342Z,59.74
2018-09-19T09:34:03.872Z,59.52
2018-09-19T09:36:32.394Z,59.40
2018-09-19T09:39:00.933Z,58.38
2018-09-19T09:41:29.393Z,58.50
2018-09-19T09:43:57.914Z,57.88
2018-09-19T09:46:26.551Z,58.05
2018-09-19T09:48:55.129Z,58.26
2018-09-19T09:51:23.624Z,57.76
2018-09-19T09:53:52.248Z,55.50
2018-09-19T09:56:20.897Z,55.28
2018-09-19T09:58:49.352Z,54.99
2018-09-19T10:01:17.938Z,56.05
2018-09-19T10:03:46.474Z,55.95
2018-09-19T10:06:14.934Z,55.07
2018-09-19T10:08:43.614Z,55.20
2018-09-19T10:11:12.010Z,54.62
2018-09-19T10:13:40.542Z,53.68
2018-09-19T10:16:09.407Z,53.88
2018-09-19T10:18:37.970Z,54.44
2018-09-19T10:21:06.574Z,54.64
2018-09-19T10:23:35.246Z,54.84
2018-09-19T10:26:03.746Z,52.53
2018-09-19T10:28:32.374Z,52.56
2018-09-19T10:31:00.833Z,51.99
2018-09-19T10:33:29.271Z,51.79
2018-09-19T10:35:57.709Z,50.05
2018-09-19T10:38:26.386Z,49.68
2018-09-19T10:40:54.932Z,49.26
2018-09-19T10:43:23.382Z,49.96
2018-09-19T10:45:51.848Z,49.40
2018-09-19T10:48:20.371Z,49.90
2018-09-19T10:50:48.872Z,48.58
2018-09-19T10:53:17.456Z,49.58
2018-09-19T10:55:45.854Z,48.03
2018-09-19T10:58:14.359Z,48.72
2018-09-19T11:00:42.952Z,48.65
2018-09-19T11:03:11.378Z,47.93
2018-09-19T11:05:39.811Z,47.42
2018-09-19T11:08:08.343Z,46.50
2018-09-19T11:10:36.795Z,47.24
2018-09-19T11:13:05.311Z,47.90
2018-09-19T11:15:33.939Z,47.66
2018-09-19T11:18:02.384Z,47.22
2018-09-19T11:20:30.875Z,47.26
2018-09-19T11:22:59.462Z,46.22
2018-09-19T11:25:28.031Z,45.76
2018-09-19T11:27:56.567Z,46.04
2018-09-19T11:30:25.138Z,46.57
2018-09-19T11:32:53.776Z,44.92
2018-09-19T11:35:22.231Z,45.91
2018-09-19T11:37:50.683Z,44.61
2018-09-19T11:40:19.131Z,45.27
2018-09-19T11:42:47.602Z,44.81
2018-09-19T11:45:16.176Z,43.87
2018-09-19T11:47:44.583Z,44.14
2018-09-19T11:50:13.117Z,44.18
2018-09-19T11:52:41.623Z,43.60
2018-09-19T11:55:10.227Z,44.92
2018-09-19T11:57:38.727Z,44.21
2018-09-19T12:00:07.751Z,43.27
2018-09-19T12:02:36.511Z,42.87
2018-09-19T12:05:05.015Z,43.15
2018-09-19T12:07:33.729Z,43.04
2018-09-19T12:10:02.203Z,42.44
2018-09-19T12:12:31.147Z,42.76
2018-09-19T12:15:00.079Z,42.83
2018-09-19T12:17:28.535Z,41.81
2018-09-19T12:19:57.326Z,43.17
2018-09-19T12:22:25.751Z,42.81
2018-09-19T12:24:54.283Z,43.48
2018-09-19T12:27:22.877Z,42.01
2018-09-19T12:29:51.667Z,42.56
2018-09-19T12:32:20.334Z,42.32
2018-09-19T12:34:48.779Z,41.98
2018-09-19T12:37:19.694Z,41.40
2018-09-19T12:39:48.114Z,41.95
2018-09-19T12:42:16.542Z,42.49
2018-09-19T12:44:45.314Z,42.65
2018-09-19T12:47:13.837Z,41.63
2018-09-19T12:49:42.311Z,41.27
2018-09-19T12:52:10.870Z,41.48
2018-09-19T12:54:39.351Z,41.40
2018-09-19T12:57:07.783Z,41.74
2018-09-19T12:59:36.562Z,40.94
2018-09-19T13:02:05.064Z,42.23
2018-09-19T13:04:33.470Z,42.59
2018-09-19T13:07:02.163Z,42.55
2018-09-19T13:09:30.595Z,42.08
2018-09-19T13:11:59.193Z,42.11
2018-09-19T13:14:27.663Z,40.97
2018-09-19T13:16:56.107Z,42.15
2018-09-19T13:19:24.524Z,42.03
2018-09-19T13:21:53.434Z,41.95
2018-09-19T13:24:21.947Z,41.31
2018-09-19T13:26:50.363Z,41.93
2018-09-19T13:29:19.098Z,41.39
2018-09-19T13:31:47.522Z,42.16
2018-09-19T13:34:16.235Z,40.95
2018-09-19T13:36:44.882Z,41.62
2018-09-19T13:39:13.763Z,41.86
2018-09-19T13:41:42.178Z,40.58
2018-09-19T13:44:10.779Z,40.90
2018-09-19T13:46:39.307Z,41.82
2018-09-19T13:49:26.146Z,40.98
2018-09-19T13:51:54.816Z,42.17
2018-09-19T13:54:23.331Z,41.42
2018-09-19T13:56:51.987Z,41.49
2018-09-19T13:59:20.413Z,41.46
2018-09-19T14:01:48.837Z,42.50
2018-09-19T14:04:17.480Z,41.57
2018-09-19T14:06:46.088Z,42.61
2018-09-19T14:09:14.708Z,41.79
2018-09-19T14:11:43.557Z,41.45
2018-09-19T14:14:17.558Z,41.53
2018-09-19T14:16:46.183Z,41.60
2018-09-19T14:19:15.420Z,41.68
2018-09-19T14:21:43.886Z,41.82
2018-09-19T14:24:12.351Z,41.01
2018-09-19T14:26:41.142Z,41.11
2018-09-19T14:29:18.729Z,41.32
2018-09-19T14:31:47.587Z,40.96
2018-09-19T14:34:16.043Z,40.87
2018-09-19T14:36:44.898Z,40.96
2018-09-19T14:39:13.319Z,41.04
2018-09-19T14:41:41.735Z,42.29
2018-09-19T14:44:10.298Z,41.31
2018-09-19T14:46:47.644Z,41.52
2018-09-19T14:49:17.123Z,41.44
2018-09-19T14:51:47.800Z,40.58
2018-09-19T14:54:16.407Z,40.72
2018-09-19T14:56:44.910Z,41.34
2018-09-19T14:59:13.329Z,41.98
2018-09-19T15:01:41.915Z,41.58
2018-09-19T15:04:10.443Z,40.96
2018-09-19T15:06:38.942Z,42.56
2018-09-19T15:09:09.293Z,42.09
2018-09-19T15:11:38.083Z,41.87
2018-09-19T15:14:06.701Z,41.67
2018-09-19T15:16:35.167Z,41.04
2018-09-19T15:19:07.227Z,41.14
2018-09-19T15:21:35.727Z,42.06
2018-09-19T15:24:04.192Z,42.81
2018-09-19T15:26:32.638Z,42.31
2018-09-19T15:29:01.377Z,42.27
2018-09-19T15:31:29.803Z,43.02
2018-09-19T15:33:58.658Z,42.72
2018-09-19T15:36:27.318Z,42.84
2018-09-19T15:38:55.750Z,41.81
2018-09-19T15:41:24.267Z,41.98
2018-09-19T15:43:53.029Z,42.76
2018-09-19T15:46:21.504Z,43.06
2018-09-19T15:48:49.994Z,42.43
2018-09-19T15:51:18.560Z,43.27
2018-09-19T15:53:46.953Z,43.53
2018-09-19T15:56:15.590Z,43.11
2018-09-19T15:58:44.249Z,42.28
2018-09-19T16:01:12.915Z,42.91
2018-09-19T16:03:41.394Z,43.30
2018-09-19T16:06:10.310Z,43.26
2018-09-19T16:08:38.758Z,42.33
2018-09-19T16:11:07.471Z,42.69
2018-09-19T16:13:36.128Z,43.21
2018-09-19T16:16:05.018Z,43.63
2018-09-19T16:18:33.461Z,44.39
2018-09-19T16:21:01.996Z,43.85
2018-09-19T16:23:30.435Z,43.90
2018-09-19T16:25:59.039Z,43.56
2018-09-19T16:28:27.551Z,43.91
2018-09-19T16:30:56.016Z,44.22
2018-09-19T16:33:24.855Z,44.84
2018-09-19T16:35:53.505Z,45.01
2018-09-19T16:38:22.129Z,44.61
2018-09-19T16:40:50.695Z,44.75
2018-09-19T16:43:19.625Z,45.96
2018-09-19T16:45:49.235Z,45.06
2018-09-19T16:48:17.798Z,45.12
2018-09-19T16:50:46.410Z,44.73
2018-09-19T16:53:15.198Z,44.81
2018-09-19T16:55:43.630Z,45.76
2018-09-19T16:58:12.334Z,45.51
2018-09-19T17:00:40.863Z,45.67
2018-09-19T17:03:10.171Z,47.14
2018-09-19T17:05:38.991Z,46.63
2018-09-19T17:08:07.458Z,46.76
2018-09-19T17:10:35.972Z,47.60
2018-09-19T17:13:04.470Z,47.40
2018-09-19T17:15:32.985Z,47.36
2018-09-19T17:18:01.410Z,47.33
2018-09-19T17:20:30.519Z,47.50
2018-09-19T17:22:59.028Z,47.88
2018-09-19T17:25:27.515Z,48.25
2018-09-19T17:27:56.071Z,49.03
2018-09-19T17:30:24.599Z,48.99
2018-09-19T17:32:53.083Z,48.59
2018-09-19T17:35:21.647Z,49.60
2018-09-19T17:37:50.178Z,49.89
2018-09-19T17:40:18.689Z,50.36
2018-09-19T17:42:48.263Z,50.43
2018-09-19T17:45:17.710Z,50.67
2018-09-19T17:47:46.287Z,49.89
2018-09-19T17:50:15.145Z,49.97
2018-09-19T17:52:43.679Z,51.30
2018-09-19T17:55:12.123Z,50.85
2018-09-19T17:57:40.657Z,51.59
2018-09-19T18:00:10.785Z,51.08
2018-09-19T18:02:40.095Z,52.47
2018-09-19T18:05:09.251Z,52.95
2018-09-19T18:07:37.745Z,53.67
2018-09-19T18:10:06.497Z,54.27
2018-09-19T18:12:35.170Z,54.56
2018-09-19T18:15:03.727Z,54.53
2018-09-19T18:17:32.289Z,55.15
2018-09-19T18:20:01.489Z,55.44
2018-09-19T18:22:30.088Z,57.12
2018-09-19T18:24:58.889Z,56.98
2018-09-19T18:27:27.406Z,58.58
2018-09-19T18:29:56.453Z,58.22
2018-09-19T18:32:25.719Z,58.38
2018-09-19T18:34:54.388Z,58.96
2018-09-19T18:37:22.855Z,59.22
2018-09-19T18:39:51.421Z,60.89
2018-09-19T18:42:20.099Z,61.47
2018-09-19T18:44:49.159Z,61.09
2018-09-19T18:47:18.554Z,61.30
2018-09-19T18:49:47.402Z,62.86
2018-09-19T18:52:16.536Z,62.77
2018-09-19T18:54:45.563Z,63.50
2018-09-19T18:57:15.693Z,64.54
2018-09-19T18:59:44.344Z,65.03
2018-09-19T19:02:13.097Z,64.22
2018-09-19T19:04:42.068Z,65.52
2018-09-19T19:07:11.252Z,65.02
2018-09-19T19:09:40.469Z,65.28
2018-09-19T19:12:09.454Z,65.05
2018-09-19T19:14:38.530Z,66.86
2018-09-19T19:17:07.581Z,65.96
2018-09-19T19:19:36.768Z,66.91
2018-09-19T19:22:05.885Z,66.01
2018-09-19T19:24:35.200Z,65.60
2018-09-19T19:27:04.318Z,66.34
2018-09-19T19:29:33.349Z,66.57
2018-09-19T19:32:02.929Z,66.29
2018-09-19T19:34:32.959Z,66.93
2018-09-19T19:37:02.048Z,66.53
2018-09-19T19:39:32.109Z,66.48
2018-09-19T19:42:01.326Z,67.90
2018-09-19T19:44:30.370Z,67.62
2018-09-19T19:47:00.342Z,66.24
2018-09-19T19:49:29.484Z,67.83
2018-09-19T19:51:58.460Z,68.15
2018-09-19T19:54:27.479Z,68.33
2018-09-19T19:56:57.587Z,69.10
2018-09-19T19:59:26.803Z,68.72
2018-09-19T20:01:55.909Z,67.83
2018-09-19T20:04:25.030Z,69.04
2018-09-19T20:06:54.844Z,69.49
2018-09-19T20:09:23.564Z,70.01
2018-09-19T20:11:52.225Z,70.94
2018-09-19T20:14:20.706Z,70.30
2018-09-19T20:16:49.278Z,70.38
2018-09-19T20:19:17.867Z,70.23
2018-09-19T20:21:46.347Z,70.99
2018-09-19T20:24:15.475Z,70.51
2018-09-19T20:26:44.220Z,71.04
2018-09-19T20:29:13.203Z,71.06
2018-09-19T20:31:41.729Z,71.81
2018-09-19T20:34:11.060Z,72.15
2018-09-19T20:36:40.147Z,72.00
2018-09-19T20:39:09.883Z,71.98
2018-09-19T20:41:38.453Z,71.71
2018-09-19T20:44:06.981Z,72.15
2018-09-19T20:46:35.551Z,72.30
2018-09-19T20:49:04.319Z,73.17
2018-09-19T20:51:33.803Z,73.90
2018-09-19T20:54:02.293Z,73.99
2018-09-19T20:56:30.881Z,74.59
2018-09-19T20:58:59.339Z,75.42
2018-09-19T21:01:27.839Z,74.53
2018-09-19T21:03:56.551Z,74.75
2018-09-19T21:06:25.264Z,74.29
2018-09-19T21:08:53.740Z,74.15
2018-09-19T21:11:22.283Z,75.07
2018-09-19T21:13:50.851Z,74.62
2018-09-19T21:16:19.263Z,75.41
2018-09-19T21:18:47.869Z,75.43
2018-09-19T21:21:16.283Z,75.23
2018-09-19T21:23:44.824Z,75.95
2018-09-19T21:26:13.479Z,76.20
2018-09-19T21:28:41.979Z,76.93
2018-09-19T21:31:10.611Z,76.61
2018-09-19T21:33:39.104Z,76.64
2018-09-19T21:36:07.545Z,76.40
2018-09-19T21:38:35.989Z,76.75
2018-09-19T21:41:04.635Z,76.51
2018-09-19T21:43:33.060Z,76.09
2018-09-19T21:46:01.559Z,76.12
2018-09-19T21:48:30.079Z,77.07
2018-09-19T21:50:58.568Z,77.77
2018-09-19T21:53:27.035Z,76.88
2018-09-19T21:55:55.598Z,77.31
2018-09-19T21:58:24.054Z,78.00
2018-09-19T22:00:57.858Z,78.07
2018-09-19T22:03:26.448Z,78.00
2018-09-19T22:05:55.111Z,78.38
2018-09-19T22:08:24.128Z,77.75
2018-09-19T22:10:52.659Z,78.52
2018-09-19T22:13:21.132Z,78.91
2018-09-19T22:15:50.022Z,78.41
2018-09-19T22:18:18.455Z,78.95
2018-09-19T22:20:46.939Z,79.44
2018-09-19T22:23:15.359Z,79.09
2018-09-19T22:25:43.795Z,78.30
2018-09-19T22:28:12.296Z,78.52
2018-09-19T22:30:40.967Z,80.11
2018-09-19T22:33:09.631Z,80.12
2018-09-19T22:35:38.055Z,80.61
2018-09-19T22:38:06.970Z,80.26
2018-09-19T22:40:35.487Z,81.44
2018-09-19T22:43:03.994Z,81.50
2018-09-19T22:45:32.672Z,80.93
2018-09-19T22:48:01.196Z,83.06
2018-09-19T22:50:29.707Z,82.97
2018-09-19T22:52:58.267Z,83.76
2018-09-19T22:55:26.697Z,84.13
2018-09-19T22:57:55.174Z,83.80
2018-09-19T23:00:23.688Z,84.11
2018-09-19T23:02:52.139Z,82.81
2018-09-19T23:05:20.623Z,83.24
2018-09-19T23:07:49.428Z,82.80
2018-09-19T23:10:17.907Z,81.86
2018-09-19T23:12:46.314Z,82.93
2018-09-19T23:15:15.011Z,82.79
2018-09-19T23:17:43.438Z,83.28
2018-09-19T23:20:11.927Z,82.36
2018-09-19T23:22:40.663Z,83.23
2018-09-19T23:25:09.338Z,82.91
2018-09-19T23:27:37.786Z,83.34
2018-09-19T23:30:06.358Z,82.72
2018-09-19T23:32:34.770Z,83.16
2018-09-19T23:35:03.523Z,82.87
2018-09-19T23:37:31.950Z,82.84
2018-09-19T23:40:00.480Z,83.50
2018-09-19T23:42:29.475Z,83.08
2018-09-19T23:44:58.316Z,84.50
2018-09-19T23:47:26.739Z,84.28
2018-09-19T23:49:55.172Z,83.68
2018-09-19T23:52:23.946Z,83.42
2018-09-19T23:54:52.711Z,83.56
2018-09-19T23:57:21.239Z,83.86
2018-09-19T23:59:50.123Z,85.09
